Time;durP1;ratioP1;P1;durP2;ratioP2;P2;SDS_P1;SDS_P2;PMS_P1;PMS_P2;Temp;Humidity;BMP_temperature;BMP_pressure;BME280_temperature;BME280_humidity;BME280_pressure;Samples;Min_cycle;Max_cycle;Signal;HPM_P1;HPM_P2
2022/09/04 00:02:34;;;;;;;3.22;2.92;;;18.30;72.20;;;;;;5055305;28;20484;-38
2022/09/04 00:05:11;;;;;;;6.38;3.20;;;18.40;71.70;;;;;;5055195;28;20056;-38
2022/09/04 00:07:58;;;;;;;8.65;3.80;;;18.30;71.70;;;;;;5055082;28;20495;-38
2022/09/04 00:10:56;;;;;;;4.32;3.65;;;18.30;71.60;;;;;;5053718;28;20025;-38
2022/09/04 00:13:26;;;;;;;6.57;4.80;;;18.30;71.60;;;;;;5055119;28;20089;-38
2022/09/04 00:16:08;;;;;;;;;;;18.20;71.60;;;;;;5054489;28;20025;-38
2022/09/04 00:18:45;;;;;;;11.02;5.88;;;18.30;71.50;;;;;;5055376;28;19912;-38
2022/09/04 00:21:23;;;;;;;6.70;5.40;;;18.20;71.20;;;;;;5055262;28;20036;-38
2022/09/04 00:24:03;;;;;;;11.55;6.10;;;18.20;71.40;;;;;;5055291;28;20369;-38
2022/09/04 00:26:53;;;;;;;6.73;5.60;;;18.20;71.30;;;;;;5055458;28;20103;-38
2022/09/04 00:29:23;;;;;;;10.48;5.32;;;18.10;71.60;;;;;;5054507;28;20064;-37
2022/09/04 00:31:55;;;;;;;11.43;6.38;;;18.00;71.60;;;;;;5055360;28;20465;-38
2022/09/04 00:34:40;;;;;;;11.88;6.47;;;17.90;71.70;;;;;;5055320;28;20047;-38
2022/09/04 00:37:10;;;;;;;11.07;6.05;;;17.90;72.00;;;;;;5053843;28;20029;-38
2022/09/04 00:39:44;;;;;;;9.50;5.90;;;17.90;71.80;;;;;;5053915;28;20056;-38
2022/09/04 00:42:51;;;;;;;11.45;5.18;;;17.90;71.80;;;;;;5055583;28;20021;-39
2022/09/04 00:45:41;;;;;;;6.18;5.10;;;17.80;72.00;;;;;;5055381;28;20071;-38
2022/09/04 00:48:16;;;;;;;5.32;4.82;;;17.90;72.00;;;;;;5054969;28;20024;-42
2022/09/04 00:50:51;;;;;;;5.18;3.97;;;17.80;72.00;;;;;;5054662;28;20091;-37
2022/09/04 00:53:43;;;;;;;5.07;3.38;;;17.80;72.20;;;;;;5053968;28;20017;-38
2022/09/04 00:56:40;;;;;;;7.35;3.60;;;17.70;72.30;;;;;;5054336;28;20025;-38
2022/09/04 00:59:32;;;;;;;4.22;3.63;;;17.70;72.50;;;;;;5054686;28;20035;-38
2022/09/04 01:02:11;;;;;;;3.70;3.40;;;17.60;72.40;;;;;;5054387;28;20469;-38
2022/09/04 01:04:47;;;;;;;5.70;3.42;;;17.50;72.60;;;;;;5054540;28;20529;-38
2022/09/04 01:07:32;;;;;;;4.93;3.08;;;17.50;72.80;;;;;;5054082;28;20029;-39
2022/09/04 01:10:23;;;;;;;4.13;3.25;;;17.50;72.70;;;;;;5054292;28;20025;-40
2022/09/04 01:13:05;;;;;;;3.63;3.25;;;17.40;72.50;;;;;;5053754;28;20021;-38
2022/09/04 01:15:47;;;;;;;4.57;3.38;;;17.40;72.60;;;;;;5054037;28;20539;-38
2022/09/04 01:18:42;;;;;;;4.78;2.90;;;17.30;72.80;;;;;;5052545;28;20032;-39
2022/09/04 01:21:29;;;;;;;3.45;3.15;;;17.30;72.70;;;;;;5052785;28;20461;-38
2022/09/04 01:23:57;;;;;;;2.92;2.25;;;17.30;72.60;;;;;;5053974;28;20036;-37
2022/09/04 01:26:35;;;;;;;6.28;2.85;;;17.30;72.50;;;;;;5053640;28;20056;-38
2022/09/04 01:29:22;;;;;;;3.90;2.80;;;17.30;72.60;;;;;;5053574;28;20059;-38
2022/09/04 01:32:00;;;;;;;3.85;2.75;;;17.40;71.90;;;;;;5053375;28;20131;-39
2022/09/04 01:34:51;;;;;;;3.58;2.70;;;17.40;71.60;;;;;;5052063;28;20029;-37
2022/09/04 01:37:42;;;;;;;5.00;2.78;;;17.30;71.50;;;;;;5053503;28;20473;-39
2022/09/04 01:40:23;;;;;;;3.00;2.58;;;17.30;71.30;;;;;;5052851;28;20017;-37
2022/09/04 01:43:01;;;;;;;3.13;2.60;;;17.30;71.20;;;;;;5053560;28;20078;-39
2022/09/04 01:45:45;;;;;;;3.13;2.30;;;17.30;70.90;;;;;;5053216;28;20032;-37
2022/09/04 01:48:15;;;;;;;4.88;2.40;;;17.30;70.70;;;;;;5053186;28;20025;-37
2022/09/04 01:50:45;;;;;;;3.17;2.67;;;17.30;70.60;;;;;;5051883;28;20480;-38
2022/09/04 01:53:17;;;;;;;7.88;2.50;;;17.20;70.70;;;;;;5051891;28;20510;-39
2022/09/04 01:55:56;;;;;;;3.55;3.25;;;17.20;70.80;;;;;;5053642;28;20033;-38
2022/09/04 01:58:34;;;;;;;3.38;2.40;;;17.10;70.60;;;;;;5053285;28;20078;-38
2022/09/04 02:01:31;;;;;;;3.05;2.28;;;17.10;70.70;;;;;;5053560;28;20384;-38
2022/09/04 02:04:19;;;;;;;2.67;2.28;;;17.10;70.60;;;;;;5052582;28;20037;-38
2022/09/04 02:06:59;;;;;;;3.53;2.35;;;17.10;70.50;;;;;;5051763;28;20033;-38
2022/09/04 02:09:43;;;;;;;6.90;2.50;;;17.20;70.30;;;;;;5053041;28;20485;-38
2022/09/04 02:12:24;;;;;;;5.63;2.80;;;17.10;70.20;;;;;;5053299;28;20052;-38
2022/09/04 02:15:25;;;;;;;2.70;2.47;;;17.20;69.90;;;;;;5053013;28;20021;-38
2022/09/04 02:18:12;;;;;;;2.85;2.47;;;17.10;69.80;;;;;;5051135;28;20047;-38
2022/09/04 02:20:45;;;;;;;2.55;2.30;;;17.10;69.60;;;;;;5052959;28;20048;-37
2022/09/04 02:23:28;;;;;;;4.13;3.47;;;17.00;70.10;;;;;;5051603;28;20107;-38
2022/09/04 02:26:22;;;;;;;4.53;3.92;;;16.90;70.30;;;;;;5053996;28;20507;-38
2022/09/04 02:28:57;;;;;;;5.80;2.70;;;16.80;70.30;;;;;;5052356;28;20049;-38
2022/09/04 02:31:40;;;;;;;3.20;2.90;;;16.90;70.40;;;;;;5053301;28;20044;-38
2022/09/04 02:34:19;;;;;;;3.58;2.20;;;16.90;70.30;;;;;;5052990;28;20472;-38
2022/09/04 02:37:35;;;;;;;3.20;2.60;;;16.80;70.50;;;;;;5051376;28;20017;-38
2022/09/04 02:40:13;;;;;;;6.35;2.80;;;16.80;70.50;;;;;;5042613;28;20392;-38
2022/09/04 02:43:06;;;;;;;3.50;2.30;;;16.80;70.60;;;;;;5052872;28;20055;-39
2022/09/04 02:45:50;;;;;;;2.85;2.55;;;16.80;70.40;;;;;;5053038;28;20035;-39
2022/09/04 02:48:25;;;;;;;3.83;2.40;;;16.80;70.50;;;;;;5051375;28;20481;-39
2022/09/04 02:51:27;;;;;;;6.07;3.13;;;16.80;70.70;;;;;;5053361;28;20028;-39
2022/09/04 02:54:02;;;;;;;7.03;3.65;;;16.80;70.50;;;;;;5056302;28;20047;-38
2022/09/04 02:56:33;;;;;;;12.65;6.97;;;16.70;70.60;;;;;;5056791;28;20119;-38
2022/09/04 02:59:16;;;;;;;20.10;10.35;;;16.70;70.80;;;;;;5056896;28;20372;-39
2022/09/04 03:01:58;;;;;;;26.90;14.02;;;16.60;70.60;;;;;;5056437;28;20025;-40
2022/09/04 03:05:00;;;;;;;28.58;15.32;;;16.70;70.60;;;;;;5056355;28;20100;-38
2022/09/04 03:07:34;;;;;;;45.13;25.05;;;16.60;70.50;;;;;;5054716;28;20037;-38
2022/09/04 03:10:14;;;;;;;55.65;27.05;;;16.60;70.60;;;;;;5056090;28;20029;-38
2022/09/04 03:13:07;;;;;;;53.22;28.05;;;16.60;70.60;;;;;;5056228;28;20021;-38
2022/09/04 03:16:01;;;;;;;57.38;26.75;;;16.60;70.60;;;;;;5054897;28;20452;-39
2022/09/04 03:18:48;;;;;;;57.45;24.38;;;16.50;70.70;;;;;;5056335;28;20028;-37
2022/09/04 03:21:22;;;;;;;55.97;23.73;;;16.50;71.10;;;;;;5056211;28;20048;-38
2022/09/04 03:24:01;;;;;;;44.25;21.95;;;16.50;70.90;;;;;;5056332;28;20492;-39
2022/09/04 03:26:34;;;;;;;56.00;25.58;;;16.50;71.00;;;;;;5056246;28;20029;-39
2022/09/04 03:29:07;;;;;;;46.83;23.85;;;16.40;71.20;;;;;;5055929;28;20069;-38
2022/09/04 03:31:44;;;;;;;62.33;31.13;;;16.30;71.50;;;;;;5056133;28;20381;-39
2022/09/04 03:34:42;;;;;;;60.38;29.73;;;16.30;71.80;;;;;;5056170;28;20017;-39
2022/09/04 03:37:29;;;;;;;57.40;29.17;;;16.10;72.20;;;;;;5056474;28;20025;-39
2022/09/04 03:40:20;;;;;;;52.33;27.40;;;16.30;72.30;;;;;;5054505;28;20029;-39
2022/09/04 03:43:23;;;;;;;44.95;25.60;;;16.30;72.10;;;;;;5054839;28;20123;-39
2022/09/04 03:46:16;;;;;;;43.35;23.33;;;16.20;72.30;;;;;;5056009;28;20029;-40
2022/09/04 03:49:27;;;;;;;35.95;20.67;;;16.10;72.50;;;;;;5055829;28;20107;-38
2022/09/04 03:52:00;;;;;;;;;;;16.10;72.60;;;;;;5056313;28;20108;-38
2022/09/04 03:54:49;;;;;;;38.80;19.92;;;16.00;72.70;;;;;;5055849;28;19954;-38
2022/09/04 03:57:39;;;;;;;40.30;22.67;;;16.00;72.90;;;;;;5055834;28;20029;-40
2022/09/04 04:00:14;;;;;;;31.02;18.27;;;16.00;72.80;;;;;;5055786;28;20052;-38
2022/09/04 04:03:10;;;;;;;26.92;16.20;;;16.00;72.90;;;;;;5055575;28;20122;-40
2022/09/04 04:06:05;;;;;;;31.48;15.02;;;15.90;73.10;;;;;;5055302;28;20025;-37
2022/09/04 04:09:13;;;;;;;18.25;10.45;;;16.00;73.20;;;;;;5055660;28;20021;-38
2022/09/04 04:12:15;;;;;;;14.20;8.55;;;15.90;73.10;;;;;;5054134;28;20116;-39
2022/09/04 04:14:54;;;;;;;15.90;9.43;;;15.80;73.20;;;;;;5054379;28;20039;-39
2022/09/04 04:17:41;;;;;;;19.10;9.65;;;15.90;73.30;;;;;;5055482;28;20060;-38
2022/09/04 04:20:40;;;;;;;13.50;8.70;;;15.80;73.40;;;;;;5053721;28;20086;-39
2022/09/04 04:23:25;;;;;;;13.35;7.70;;;15.80;73.50;;;;;;5055285;28;20473;-38
2022/09/04 04:26:27;;;;;;;11.55;8.20;;;15.80;73.70;;;;;;5055215;28;20028;-39
2022/09/04 04:29:17;;;;;;;10.13;7.00;;;15.90;73.40;;;;;;5054020;28;20148;-39
2022/09/04 18:30:17;;;;;;;5.85;3.60;;;25.00;53.90;;;;;;5131724;27;20374;-47
2022/09/04 18:32:52;;;;;;;5.05;2.83;;;24.90;54.40;;;;;;5130376;28;20027;-49
2022/09/04 18:35:55;;;;;;;4.93;3.13;;;24.80;54.60;;;;;;5131764;28;20055;-49
2022/09/04 18:38:59;;;;;;;7.20;3.67;;;24.80;54.50;;;;;;5131136;28;20042;-47
2022/09/04 18:41:31;;;;;;;7.88;4.20;;;24.80;54.50;;;;;;5109228;28;20436;-50
2022/09/04 18:44:07;;;;;;;6.68;3.65;;;24.80;54.50;;;;;;5110339;28;20051;-50
2022/09/04 18:46:33;;;;;;;8.52;4.80;;;24.80;54.70;;;;;;5110483;28;20028;-48
2022/09/04 18:49:07;;;;;;;5.55;3.58;;;24.70;54.70;;;;;;5110523;28;20076;-48
2022/09/04 18:51:54;;;;;;;12.10;7.25;;;24.70;55.10;;;;;;5109136;28;20026;-47
2022/09/04 18:54:49;;;;;;;12.63;7.10;;;24.60;55.20;;;;;;5109147;28;20122;-47
2022/09/04 18:57:28;;;;;;;5.97;3.50;;;24.50;55.50;;;;;;5109695;28;20045;-50
2022/09/04 19:00:01;;;;;;;9.27;4.85;;;24.40;55.80;;;;;;5110651;28;20416;-50
2022/09/04 19:02:30;;;;;;;6.68;3.72;;;24.40;56.00;;;;;;5110464;28;20190;-49
2022/09/04 19:05:02;;;;;;;6.10;3.30;;;24.30;56.50;;;;;;5110751;28;20020;-48
2022/09/04 19:07:58;;;;;;;8.63;3.30;;;24.20;56.90;;;;;;5110404;28;20031;-47
2022/09/04 19:10:29;;;;;;;11.38;6.97;;;24.10;57.10;;;;;;5110562;28;20375;-49
2022/09/04 19:13:08;;;;;;;7.60;5.00;;;24.10;57.60;;;;;;5110227;28;20024;-51
2022/09/04 19:15:56;;;;;;;9.32;5.68;;;24.00;57.70;;;;;;5110362;28;20424;-48
2022/09/04 19:18:40;;;;;;;15.43;12.57;;;24.00;58.00;;;;;;5110471;28;20028;-49
2022/09/04 19:21:21;;;;;;;14.35;3.10;;;23.80;58.30;;;;;;5110274;28;20023;-49
2022/09/04 19:24:02;;;;;;;5.93;3.00;;;23.80;58.50;;;;;;5110191;28;20024;-50
2022/09/04 19:26:50;;;;;;;3.45;2.78;;;23.70;58.80;;;;;;5109928;28;20511;-48
2022/09/04 19:29:28;;;;;;;9.75;5.63;;;23.70;59.00;;;;;;5109540;28;20048;-48
2022/09/04 19:32:12;;;;;;;5.40;3.60;;;23.70;59.10;;;;;;5109450;28;20024;-47
2022/09/04 19:34:47;;;;;;;7.45;3.45;;;23.60;59.60;;;;;;5110655;28;20024;-48
2022/09/04 19:37:26;;;;;;;5.57;4.35;;;23.50;59.90;;;;;;5109872;28;20016;-47
2022/09/04 19:40:12;;;;;;;5.93;3.53;;;23.50;60.20;;;;;;5106536;28;20422;-47
2022/09/04 19:42:50;;;;;;;12.10;4.80;;;23.40;60.50;;;;;;5094864;28;20259;-50
2022/09/04 19:45:46;;;;;;;8.98;4.13;;;23.30;60.70;;;;;;5096588;28;20096;-48
2022/09/04 19:48:20;;;;;;;10.20;4.53;;;23.30;60.80;;;;;;5095753;28;20094;-48
2022/09/04 19:50:48;;;;;;;6.25;4.07;;;23.30;61.30;;;;;;5095793;28;20038;-47
2022/09/04 19:53:17;;;;;;;7.00;3.78;;;23.10;61.70;;;;;;5094155;28;20357;-48
2022/09/04 19:56:00;;;;;;;6.88;3.75;;;23.10;62.00;;;;;;5095660;28;20114;-47
2022/09/04 19:58:38;;;;;;;10.60;5.60;;;23.00;62.20;;;;;;5095779;28;20024;-49
2022/09/04 20:01:13;;;;;;;9.85;5.95;;;22.90;62.60;;;;;;5095416;28;20097;-46
2022/09/04 20:03:57;;;;;;;13.35;5.72;;;22.80;63.10;;;;;;5095561;28;20391;-49
2022/09/04 20:06:32;;;;;;;8.73;4.20;;;22.80;63.30;;;;;;5095630;28;20593;-48
2022/09/04 20:09:05;;;;;;;10.18;5.55;;;22.70;63.60;;;;;;5095441;28;20530;-48
2022/09/04 20:11:38;;;;;;;11.90;4.40;;;22.60;63.80;;;;;;5095156;28;20016;-48
2022/09/04 20:14:28;;;;;;;10.98;3.95;;;22.60;64.00;;;;;;5093851;28;20388;-46
2022/09/04 20:17:12;;;;;;;;;;;22.60;64.10;;;;;;5095261;28;20082;-48
2022/09/04 20:19:45;;;;;;;6.70;4.20;;;22.60;64.10;;;;;;5095167;28;20340;-48
2022/09/04 20:22:27;;;;;;;8.38;6.43;;;22.60;64.20;;;;;;5095288;28;20036;-49
2022/09/04 20:25:09;;;;;;;10.57;6.22;;;22.40;64.30;;;;;;5095403;28;20510;-47
2022/09/04 20:27:42;;;;;;;8.73;5.63;;;22.40;64.60;;;;;;5095084;28;20043;-47
2022/09/04 20:30:12;;;;;;;7.93;4.97;;;22.40;64.50;;;;;;5094670;28;20065;-50
2022/09/04 20:32:48;;;;;;;6.30;3.70;;;22.30;64.90;;;;;;5093944;28;20078;-49
2022/09/04 20:35:43;;;;;;;8.15;6.05;;;22.30;65.20;;;;;;5094965;28;20024;-48
2022/09/04 20:38:38;;;;;;;4.88;3.70;;;22.20;65.40;;;;;;5092853;28;20093;-47
2022/09/04 20:41:09;;;;;;;6.82;3.78;;;22.20;65.60;;;;;;5094620;28;20036;-48
2022/09/04 20:43:53;;;;;;;7.35;4.03;;;22.10;65.90;;;;;;5094785;28;20016;-51
2022/09/04 20:46:48;;;;;;;10.13;5.53;;;22.10;66.10;;;;;;5094929;28;20062;-48
2022/09/04 20:49:36;;;;;;;6.95;4.18;;;22.00;66.20;;;;;;5094774;28;20024;-47
2022/09/04 20:52:07;;;;;;;5.43;3.78;;;22.00;66.40;;;;;;5093644;28;20016;-47
2022/09/04 20:54:59;;;;;;;9.38;3.78;;;21.80;66.90;;;;;;5094850;28;20020;-48
2022/09/04 20:57:35;;;;;;;7.95;4.60;;;21.80;67.20;;;;;;5091910;28;20035;-48
2022/09/04 21:00:14;;;;;;;7.38;3.65;;;21.80;67.40;;;;;;5093023;28;20161;-47
2022/09/04 21:02:47;;;;;;;6.15;4.00;;;21.70;67.50;;;;;;5094336;28;20032;-47
2022/09/04 21:05:48;;;;;;;6.80;4.65;;;21.70;67.60;;;;;;5094402;28;20058;-48
2022/09/04 21:08:30;;;;;;;6.88;4.63;;;21.70;67.90;;;;;;5094624;28;20425;-50
2022/09/04 21:11:00;;;;;;;7.10;5.30;;;21.70;67.90;;;;;;5093514;28;20031;-47
2022/09/04 21:13:30;;;;;;;;;;;21.60;68.10;;;;;;5094955;28;20583;-46
2022/09/04 21:16:08;;;;;;;10.00;5.55;;;21.50;68.40;;;;;;5094274;28;20271;-48
2022/09/04 21:19:05;;;;;;;7.97;4.40;;;21.50;68.60;;;;;;5094400;28;20024;-48
2022/09/04 21:21:52;;;;;;;8.73;4.65;;;21.40;68.80;;;;;;5092756;28;20024;-46
2022/09/04 21:24:59;;;;;;;9.23;5.80;;;21.30;69.20;;;;;;5093561;28;20058;-47
2022/09/04 21:27:54;;;;;;;7.55;5.30;;;21.30;69.50;;;;;;5091867;28;20480;-48
2022/09/04 21:30:39;;;;;;;8.15;4.90;;;21.30;69.60;;;;;;5093923;28;20114;-48
2022/09/04 21:33:07;;;;;;;6.28;4.28;;;21.30;69.50;;;;;;5094111;28;20094;-47
2022/09/04 21:35:40;;;;;;;10.32;5.13;;;21.30;69.50;;;;;;5093714;28;20012;-47
2022/09/04 21:38:27;;;;;;;5.50;4.28;;;21.30;69.50;;;;;;5094013;28;20119;-47
2022/09/04 21:41:03;;;;;;;6.10;4.38;;;21.30;69.50;;;;;;5093628;28;20433;-47
2022/09/04 21:44:01;;;;;;;7.50;4.22;;;21.30;69.60;;;;;;5093854;28;20027;-49
2022/09/04 21:46:54;;;;;;;9.18;4.90;;;21.20;69.70;;;;;;5093485;28;20020;-51
2022/09/04 21:49:38;;;;;;;12.38;5.13;;;21.20;69.90;;;;;;5094256;28;20036;-47
2022/09/04 21:52:40;;;;;;;8.32;4.80;;;21.10;69.90;;;;;;5093457;28;20480;-49
2022/09/04 21:55:45;;;;;;;6.63;4.38;;;21.10;70.10;;;;;;5093386;28;20482;-46
2022/09/04 21:58:30;;;;;;;6.22;4.53;;;21.00;70.20;;;;;;5092306;28;20016;-49
2022/09/04 22:01:33;;;;;;;10.80;6.38;;;21.00;70.40;;;;;;5092017;28;20055;-49
2022/09/04 22:04:20;;;;;;;12.32;5.20;;;21.00;70.40;;;;;;5093298;28;20045;-46
2022/09/04 22:07:24;;;;;;;9.65;5.72;;;20.90;70.40;;;;;;5091999;28;20498;-46
2022/09/04 22:09:52;;;;;;;10.52;4.90;;;20.90;70.60;;;;;;5089857;28;20036;-48
2022/09/04 22:13:19;;;;;;;8.82;4.85;;;20.90;70.60;;;;;;5093416;28;20062;-47
2022/09/04 22:15:57;;;;;;;10.10;5.82;;;20.80;70.60;;;;;;5079317;28;20063;-47
2022/09/04 22:18:34;;;;;;;10.30;5.47;;;20.80;70.60;;;;;;5093286;28;20028;-47
2022/09/04 22:21:19;;;;;;;11.75;6.75;;;20.80;70.70;;;;;;5092070;28;20077;-48
2022/09/04 22:24:10;;;;;;;9.95;6.72;;;20.80;70.80;;;;;;5093232;28;20024;-46
2022/09/04 22:27:18;;;;;;;6.70;4.85;;;20.80;70.70;;;;;;5092865;28;20032;-47
2022/09/04 22:29:49;;;;;;;5.35;4.47;;;20.70;70.90;;;;;;5092943;28;20094;-49
2022/09/04 22:32:58;;;;;;;6.35;4.32;;;20.70;71.20;;;;;;5093437;28;20449;-47
2022/09/04 22:35:23;;;;;;;4.75;3.95;;;20.60;71.30;;;;;;5093472;28;20468;-48
2022/09/04 22:38:07;;;;;;;8.10;4.75;;;20.50;71.60;;;;;;5092789;28;20016;-47
2022/09/04 22:41:16;;;;;;;5.13;4.25;;;20.50;71.40;;;;;;5092935;28;20025;-49
2022/09/04 22:43:50;;;;;;;4.68;3.67;;;20.50;71.50;;;;;;5092760;28;20032;-48
2022/09/04 22:46:50;;;;;;;4.90;3.88;;;20.40;71.70;;;;;;5091515;28;20020;-48
2022/09/04 22:49:46;;;;;;;8.50;3.60;;;20.40;71.80;;;;;;5093097;28;20106;-50
2022/09/04 22:52:39;;;;;;;8.07;3.97;;;20.30;72.00;;;;;;5093002;28;20050;-46
2022/09/04 22:55:29;;;;;;;6.05;5.05;;;20.30;72.20;;;;;;5092881;28;20016;-47
2022/09/04 22:58:20;;;;;;;5.07;3.25;;;20.30;72.40;;;;;;5091605;28;20020;-46
2022/09/04 23:01:20;;;;;;;11.38;4.65;;;20.30;72.20;;;;;;5091677;28;20020;-47
2022/09/04 23:04:04;;;;;;;5.97;4.13;;;20.40;71.90;;;;;;5092740;28;20032;-47
2022/09/04 23:06:51;;;;;;;4.75;3.88;;;20.30;72.20;;;;;;5093374;28;20069;-47
2022/09/04 23:09:47;;;;;;;7.78;3.95;;;20.20;72.30;;;;;;5092735;28;20360;-47
2022/09/04 23:12:38;;;;;;;5.93;3.35;;;20.20;72.50;;;;;;5093061;28;20022;-48
2022/09/04 23:15:22;;;;;;;4.82;4.13;;;20.10;72.60;;;;;;5093987;28;20449;-46
2022/09/04 23:17:59;;;;;;;9.02;4.00;;;20.10;72.80;;;;;;5096659;28;20020;-48
2022/09/04 23:20:35;;;;;;;8.65;4.15;;;20.10;73.00;;;;;;5095795;28;20050;-46
2022/09/04 23:23:28;;;;;;;7.75;4.72;;;20.00;73.10;;;;;;5096318;28;20047;-42
2022/09/04 23:26:25;;;;;;;4.80;3.58;;;20.00;73.40;;;;;;5096249;28;20020;-38
2022/09/04 23:29:12;;;;;;;6.05;4.72;;;19.90;73.70;;;;;;5094546;28;20044;-44
2022/09/04 23:32:29;;;;;;;9.02;5.80;;;20.00;73.60;;;;;;5096556;28;20024;-39
2022/09/04 23:35:13;;;;;;;5.00;4.25;;;20.00;73.10;;;;;;5095230;28;20028;-42
2022/09/04 23:37:59;;;;;;;8.10;5.40;;;20.10;73.20;;;;;;5096936;28;20023;-38
2022/09/04 23:41:06;;;;;;;6.75;4.75;;;20.00;73.60;;;;;;5097160;28;20056;-40
2022/09/04 23:43:46;;;;;;;11.45;4.97;;;19.90;73.80;;;;;;5095422;28;20032;-39
2022/09/04 23:46:24;;;;;;;6.13;4.88;;;19.80;74.00;;;;;;5095618;28;20035;-40
2022/09/04 23:49:10;;;;;;;8.18;4.82;;;19.80;74.00;;;;;;5097484;28;20077;-38
2022/09/04 23:52:10;;;;;;;6.68;4.68;;;19.80;73.80;;;;;;5097210;28;20325;-43
2022/09/04 23:55:11;;;;;;;6.47;5.23;;;19.80;73.80;;;;;;5097553;28;20046;-38
2022/09/04 23:57:55;;;;;;;5.45;4.85;;;19.80;73.80;;;;;;5095697;28;20025;-38
